Time;durP1;ratioP1;P1;durP2;ratioP2;P2;SDS_P1;SDS_P2;PMS_P1;PMS_P2;Temp;Humidity;BMP_temperature;BMP_pressure;BME280_temperature;BME280_humidity;BME280_pressure;Samples;Min_cycle;Max_cycle;Signal;HPM_P1;HPM_P2
2023/03/18 00:01:41;;;;;;;0.77;0.77;;;;;;;7.66;100.00;100860.13;5057428;28;20197;-72
2023/03/18 00:04:08;;;;;;;0.80;0.80;;;;;;;7.68;100.00;100861.06;5092509;28;20229;-71
2023/03/18 00:06:37;;;;;;;0.93;0.93;;;;;;;7.73;100.00;100867.28;5092248;28;20233;-73
2023/03/18 00:09:04;;;;;;;0.80;0.80;;;;;;;7.74;100.00;100863.91;5092559;28;20587;-72
2023/03/18 00:11:31;;;;;;;0.80;0.80;;;;;;;7.56;100.00;100840.84;5092352;28;20689;-72
2023/03/18 00:13:58;;;;;;;3.13;2.93;;;;;;;7.46;100.00;100825.78;5092289;28;20198;-72
2023/03/18 00:16:26;;;;;;;0.80;0.80;;;;;;;7.60;100.00;100852.16;5092158;28;20206;-72
2023/03/18 00:18:53;;;;;;;0.60;0.60;;;;;;;7.51;100.00;100851.78;5092270;28;20229;-72
2023/03/18 00:21:22;;;;;;;0.70;0.70;;;;;;;7.39;100.00;100842.75;5092150;28;20194;-72
2023/03/18 00:23:49;;;;;;;0.77;0.77;;;;;;;7.35;100.00;100840.84;5092186;28;20195;-72
2023/03/18 00:26:16;;;;;;;0.90;0.90;;;;;;;7.34;100.00;100844.28;5092152;28;20226;-72
2023/03/18 00:28:43;;;;;;;0.60;0.60;;;;;;;7.30;100.00;100842.38;5092015;28;20594;-72
2023/03/18 00:31:12;;;;;;;0.70;0.70;;;;;;;6.99;100.00;100818.75;5039868;28;20665;-72
2023/03/18 00:33:44;;;;;;;0.70;0.70;;;;;;;6.88;100.00;100825.16;5056990;28;20202;-72
2023/03/18 00:36:13;;;;;;;1.63;1.53;;;;;;;6.77;100.00;100832.47;5056308;28;20194;-72
2023/03/18 00:38:40;;;;;;;1.00;1.00;;;;;;;6.43;100.00;100817.25;5092071;28;20214;-72
2023/03/18 00:41:11;;;;;;;0.90;0.90;;;;;;;6.48;100.00;100846.69;5091646;28;20255;-70
2023/03/18 00:43:44;;;;;;;1.00;1.00;;;;;;;6.28;100.00;100808.84;5091583;28;20190;-70
2023/03/18 00:46:15;;;;;;;0.80;0.80;;;;;;;6.04;100.00;100815.50;5091415;28;20241;-70
2023/03/18 00:48:43;;;;;;;0.83;0.83;;;;;;;6.10;100.00;100840.66;5091363;28;20229;-70
2023/03/18 00:51:12;;;;;;;5.97;2.37;;;;;;;5.95;100.00;100835.69;5091293;28;20202;-70
2023/03/18 00:53:40;;;;;;;2.77;2.57;;;;;;;5.92;100.00;100825.25;5056804;28;20202;-71
2023/03/18 00:56:08;;;;;;;0.83;0.83;;;;;;;6.05;100.00;100818.97;5056007;28;20210;-71
2023/03/18 00:58:35;;;;;;;0.70;0.70;;;;;;;6.06;100.00;100816.47;5090850;28;20283;-71
2023/03/18 01:01:02;;;;;;;0.80;0.80;;;;;;;6.17;100.00;100815.22;5091401;28;20293;-70
2023/03/18 01:03:29;;;;;;;0.70;0.70;;;;;;;6.26;100.00;100817.34;5091341;28;20209;-71
2023/03/18 01:05:57;;;;;;;0.70;0.70;;;;;;;6.48;100.00;100815.75;5091119;28;20194;-70
2023/03/18 01:08:25;;;;;;;0.70;0.70;;;;;;;6.54;100.00;100827.13;5091198;28;20209;-71
2023/03/18 01:10:52;;;;;;;0.70;0.70;;;;;;;6.44;100.00;100803.56;5091156;28;20290;-71
2023/03/18 01:13:20;;;;;;;0.67;0.67;;;;;;;6.47;100.00;100795.97;5091060;28;20201;-71
2023/03/18 01:15:47;;;;;;;0.70;0.70;;;;;;;6.61;100.00;100816.25;5091387;28;20198;-71
2023/03/18 01:18:14;;;;;;;1.10;1.10;;;;;;;6.58;100.00;100824.75;5091373;28;20645;-71
2023/03/18 01:20:41;;;;;;;0.80;0.80;;;;;;;6.44;100.00;100816.44;5091118;28;20673;-71
2023/03/18 01:23:09;;;;;;;1.00;1.00;;;;;;;6.45;100.00;100814.75;5091020;28;20213;-71
2023/03/18 01:25:36;;;;;;;2.47;2.33;;;;;;;6.40;100.00;100808.50;5090943;28;20699;-71
2023/03/18 01:28:04;;;;;;;0.80;0.80;;;;;;;6.37;100.00;100814.41;5090744;28;20234;-71
2023/03/18 01:30:30;;;;;;;0.80;0.80;;;;;;;6.39;100.00;100814.47;5091152;28;20193;-71
2023/03/18 01:32:57;;;;;;;0.70;0.70;;;;;;;6.23;100.00;100789.75;5090996;28;20205;-71
2023/03/18 01:35:25;;;;;;;0.80;0.80;;;;;;;6.43;100.00;100811.22;5090953;28;20205;-71
2023/03/18 01:37:52;;;;;;;0.90;0.90;;;;;;;6.43;100.00;100795.75;5090922;28;20267;-71
2023/03/18 01:40:21;;;;;;;0.70;0.70;;;;;;;6.65;100.00;100811.31;5090825;28;20594;-71
2023/03/18 01:42:55;;;;;;;0.70;0.70;;;;;;;6.68;100.00;100801.13;5090801;28;20209;-72
2023/03/18 01:45:27;;;;;;;0.70;0.70;;;;;;;6.66;100.00;100784.75;5090833;28;20668;-71
2023/03/18 01:47:54;;;;;;;0.70;0.70;;;;;;;6.76;100.00;100809.19;5090667;28;20218;-71
2023/03/18 01:50:24;;;;;;;0.80;0.80;;;;;;;6.87;100.00;100807.94;5091044;28;20202;-71
2023/03/18 01:52:55;;;;;;;0.70;0.70;;;;;;;6.75;100.00;100781.66;5090594;28;20198;-71
2023/03/18 01:55:26;;;;;;;0.70;0.70;;;;;;;6.81;100.00;100782.78;5090852;28;20198;-71
2023/03/18 01:57:54;;;;;;;0.80;0.80;;;;;;;6.85;100.00;100786.34;5090963;28;20225;-71
2023/03/18 02:00:22;;;;;;;0.60;0.60;;;;;;;6.98;100.00;100801.53;5090786;28;20195;-71
2023/03/18 02:02:51;;;;;;;0.80;0.80;;;;;;;7.04;100.00;100809.50;5090786;28;20201;-71
2023/03/18 02:05:21;;;;;;;0.73;0.73;;;;;;;7.10;100.00;100812.31;5090591;28;20206;-71
2023/03/18 02:07:48;;;;;;;0.70;0.70;;;;;;;7.00;100.00;100805.03;5090989;28;20230;-71
2023/03/18 02:10:19;;;;;;;0.70;0.70;;;;;;;6.47;100.00;100710.97;5094660;28;20203;-71
2023/03/18 02:12:52;;;;;;;0.80;0.80;;;;;;;6.97;100.00;100798.06;5094533;28;20197;-71
2023/03/18 02:15:22;;;;;;;0.87;0.87;;;;;;;6.73;100.00;100757.53;5094391;28;20198;-71
2023/03/18 02:17:55;;;;;;;0.90;0.90;;;;;;;7.02;100.00;100813.72;5094398;28;20213;-72
2023/03/18 02:20:38;;;;;;;0.60;0.60;;;;;;;7.07;100.00;100812.19;5094478;28;20198;-71
2023/03/18 02:23:11;;;;;;;0.90;0.90;;;;;;;7.09;100.00;100805.41;5094441;28;20206;-72
2023/03/18 02:25:44;;;;;;;0.70;0.70;;;;;;;7.06;100.00;100810.47;5094344;28;20198;-71
2023/03/18 02:28:16;;;;;;;0.60;0.60;;;;;;;7.16;100.00;100806.53;5094007;28;20221;-72
2023/03/18 02:30:47;;;;;;;5.93;1.90;;;;;;;7.10;100.00;100802.00;5094390;28;20220;-71
2023/03/18 02:33:16;;;;;;;0.73;0.73;;;;;;;7.08;100.00;100803.66;5094167;28;20685;-72
2023/03/18 02:35:45;;;;;;;0.70;0.70;;;;;;;7.18;100.00;100810.94;5094115;28;20201;-71
2023/03/18 02:38:12;;;;;;;0.80;0.80;;;;;;;7.13;100.00;100807.31;5058971;28;20194;-71
2023/03/18 02:40:40;;;;;;;0.70;0.70;;;;;;;7.17;100.00;100798.00;5093827;28;20198;-71
2023/03/18 02:43:19;;;;;;;0.63;0.63;;;;;;;7.19;100.00;100780.88;5059068;28;20838;-71
2023/03/18 02:45:58;;;;;;;0.80;0.80;;;;;;;7.17;100.00;100777.38;5093798;28;20209;-72
2023/03/18 02:48:31;;;;;;;0.80;0.80;;;;;;;7.12;100.00;100763.41;5093792;28;20232;-76
2023/03/18 02:50:58;;;;;;;0.60;0.60;;;;;;;7.11;100.00;100761.63;5093695;28;20634;-71
2023/03/18 02:53:26;;;;;;;0.80;0.80;;;;;;;6.72;100.00;100771.22;5093799;28;20194;-71
2023/03/18 02:55:53;;;;;;;0.90;0.90;;;;;;;6.91;100.00;100784.94;5093966;28;20190;-71
2023/03/18 02:58:21;;;;;;;0.60;0.60;;;;;;;7.12;100.00;100802.09;5093464;28;20234;-71
2023/03/18 03:00:48;;;;;;;0.63;0.63;;;;;;;7.14;100.00;100803.88;5093396;28;20202;-71
2023/03/18 03:03:15;;;;;;;0.70;0.70;;;;;;;6.98;100.00;100815.31;5093553;28;20205;-72
2023/03/18 03:05:42;;;;;;;0.70;0.70;;;;;;;7.04;100.00;100806.03;5093337;28;20202;-71
2023/03/18 03:08:09;;;;;;;0.73;0.73;;;;;;;7.10;100.00;100811.47;5093711;28;20229;-71
2023/03/18 03:10:36;;;;;;;0.70;0.70;;;;;;;7.11;100.00;100806.34;5093521;28;20267;-71
2023/03/18 03:13:03;;;;;;;0.80;0.80;;;;;;;7.06;100.00;100805.31;5057999;28;20198;-71
2023/03/18 03:15:31;;;;;;;0.70;0.70;;;;;;;7.12;100.00;100805.53;5093233;28;20209;-71
2023/03/18 03:17:59;;;;;;;1.17;1.17;;;;;;;6.88;100.00;100809.72;5093359;28;20255;-71
2023/03/18 03:20:26;;;;;;;0.80;0.80;;;;;;;6.87;100.00;100810.50;5091968;28;20214;-71
2023/03/18 03:22:53;;;;;;;0.70;0.70;;;;;;;6.69;100.00;100786.56;5041366;28;20645;-71
2023/03/18 03:25:21;;;;;;;0.67;0.67;;;;;;;6.78;100.00;100802.38;5093313;28;20202;-72
2023/03/18 03:27:48;;;;;;;0.70;0.70;;;;;;;6.85;100.00;100800.13;5058026;28;20727;-71
2023/03/18 03:30:17;;;;;;;0.60;0.60;;;;;;;6.70;100.00;100770.28;5092959;28;20690;-72
2023/03/18 03:32:46;;;;;;;0.70;0.70;;;;;;;6.85;100.00;100799.25;5092953;28;20202;-71
2023/03/18 03:35:14;;;;;;;0.70;0.70;;;;;;;6.73;100.00;100788.44;5092883;28;20292;-71
2023/03/18 03:37:42;;;;;;;0.80;0.80;;;;;;;6.78;100.00;100800.69;5093011;28;20599;-72
2023/03/18 03:40:10;;;;;;;0.90;0.90;;;;;;;6.77;100.00;100808.38;5093091;28;20283;-71
2023/03/18 03:42:38;;;;;;;0.70;0.70;;;;;;;6.69;100.00;100809.75;5092682;28;20198;-72
2023/03/18 03:45:06;;;;;;;0.70;0.70;;;;;;;6.68;100.00;100792.53;5092608;28;20205;-72
2023/03/18 03:47:33;;;;;;;0.70;0.70;;;;;;;6.57;100.00;100775.72;5057321;28;20222;-71
2023/03/18 03:50:01;;;;;;;1.37;1.37;;;;;;;6.62;100.00;100782.84;5093042;28;20205;-71
2023/03/18 03:52:29;;;;;;;1.80;1.47;;;;;;;6.53;100.00;100790.19;5092586;28;20202;-71
2023/03/18 03:54:56;;;;;;;1.17;1.17;;;;;;;6.47;100.00;100802.81;5092636;28;20202;-71
2023/03/18 03:57:23;;;;;;;1.50;1.47;;;;;;;6.47;100.00;100818.25;5092470;28;20673;-70
2023/03/18 03:59:50;;;;;;;1.10;1.10;;;;;;;6.45;100.00;100822.47;5092360;28;20233;-71
2023/03/18 04:02:18;;;;;;;0.70;0.70;;;;;;;6.39;100.00;100796.44;5092331;28;20213;-71
2023/03/18 04:04:45;;;;;;;0.83;0.83;;;;;;;6.52;100.00;100818.47;5092528;28;20198;-71
2023/03/18 04:07:14;;;;;;;0.70;0.70;;;;;;;6.48;100.00;100802.88;5092213;28;20222;-71
2023/03/18 04:09:41;;;;;;;0.67;0.67;;;;;;;6.51;100.00;100827.88;5057041;28;20229;-71
2023/03/18 04:12:08;;;;;;;0.90;0.90;;;;;;;6.50;100.00;100836.41;5040846;28;20203;-70
2023/03/18 04:14:36;;;;;;;0.70;0.70;;;;;;;6.41;100.00;100836.03;5056758;28;20205;-72
2023/03/18 04:17:03;;;;;;;0.60;0.60;;;;;;;6.34;100.00;100840.03;5092016;28;20677;-72
2023/03/18 04:19:29;;;;;;;0.70;0.70;;;;;;;6.29;100.00;100836.38;5092018;28;20201;-70
2023/03/18 04:21:56;;;;;;;0.70;0.70;;;;;;;6.11;100.00;100814.97;5092174;28;20198;-72
2023/03/18 04:24:25;;;;;;;0.70;0.70;;;;;;;6.24;100.00;100845.56;5092189;28;20189;-72
2023/03/18 04:26:51;;;;;;;0.63;0.63;;;;;;;6.12;100.00;100841.59;5056645;28;20307;-72
2023/03/18 04:29:18;;;;;;;0.80;0.80;;;;;;;6.17;100.00;100846.13;5091803;28;20202;-71
2023/03/18 04:31:45;;;;;;;0.80;0.80;;;;;;;6.13;100.00;100833.94;5091621;28;20194;-71
2023/03/18 04:34:12;;;;;;;0.80;0.80;;;;;;;6.05;100.00;100826.69;5092178;28;20198;-71
2023/03/18 04:36:39;;;;;;;0.80;0.80;;;;;;;6.11;100.00;100830.41;5091881;28;20198;-71
2023/03/18 04:39:08;;;;;;;0.70;0.70;;;;;;;6.04;100.00;100812.94;5091633;28;20202;-71
2023/03/18 04:41:37;;;;;;;0.80;0.80;;;;;;;6.28;100.00;100839.75;5091491;28;20602;-71
2023/03/18 04:44:04;;;;;;;0.83;0.83;;;;;;;6.03;100.00;100802.59;5056198;28;20255;-71
2023/03/18 04:46:31;;;;;;;0.70;0.70;;;;;;;6.32;100.00;100841.66;5091461;28;20256;-72
2023/03/18 04:48:58;;;;;;;0.80;0.80;;;;;;;6.29;100.00;100838.94;5091626;28;20251;-71
2023/03/18 04:51:25;;;;;;;1.07;1.07;;;;;;;6.31;100.00;100845.03;5091336;28;20240;-71
2023/03/18 04:53:52;;;;;;;0.90;0.90;;;;;;;6.29;100.00;100828.66;5091307;28;20225;-71
2023/03/18 04:56:19;;;;;;;0.70;0.70;;;;;;;6.43;100.00;100845.56;5091284;28;20198;-71
2023/03/18 04:58:47;;;;;;;0.83;0.83;;;;;;;6.55;100.00;100846.94;5091584;28;20250;-71
2023/03/18 05:01:14;;;;;;;0.60;0.60;;;;;;;6.46;100.00;100843.13;5091673;28;20198;-71
2023/03/18 05:03:42;;;;;;;0.80;0.80;;;;;;;6.59;100.00;100852.28;5091219;28;20203;-71
2023/03/18 05:06:16;;;;;;;0.63;0.63;;;;;;;6.52;100.00;100827.06;5091265;28;20233;-71
2023/03/18 05:08:43;;;;;;;0.80;0.80;;;;;;;6.67;100.00;100850.03;5091027;28;20221;-72
2023/03/18 05:11:10;;;;;;;0.70;0.70;;;;;;;6.72;100.00;100840.78;5039078;28;20573;-71
2023/03/18 05:13:37;;;;;;;0.70;0.70;;;;;;;6.25;100.00;100761.50;5089328;28;20194;-71
2023/03/18 05:16:07;;;;;;;0.90;0.90;;;;;;;6.85;100.00;100861.09;5091042;28;20657;-71
2023/03/18 05:18:34;;;;;;;0.73;0.73;;;;;;;6.68;100.00;100851.78;5091013;28;20277;-71
2023/03/18 05:21:01;;;;;;;0.90;0.90;;;;;;;6.74;100.00;100859.78;5090921;28;20194;-71
2023/03/18 05:23:28;;;;;;;0.80;0.80;;;;;;;6.66;100.00;100844.00;5072205;28;20627;-71
2023/03/18 05:25:55;;;;;;;0.70;0.70;;;;;;;6.91;100.00;100862.28;5091021;28;20198;-71
2023/03/18 05:28:22;;;;;;;0.60;0.60;;;;;;;7.06;100.00;100869.75;5091170;28;20243;-71
2023/03/18 05:30:49;;;;;;;0.80;0.80;;;;;;;7.19;100.00;100874.59;5090987;28;20194;-72
2023/03/18 05:33:17;;;;;;;1.27;1.27;;;;;;;7.05;100.00;100885.16;5090965;28;20198;-71
2023/03/18 05:35:44;;;;;;;0.80;0.80;;;;;;;7.06;100.00;100877.50;5090824;28;20208;-71
2023/03/18 05:38:10;;;;;;;1.00;1.00;;;;;;;7.19;100.00;100872.03;5090940;28;20308;-71
2023/03/18 05:40:38;;;;;;;0.90;0.90;;;;;;;7.08;100.00;100859.50;5090781;28;20691;-72
2023/03/18 05:43:05;;;;;;;0.90;0.90;;;;;;;7.21;100.00;100862.63;5091499;28;20194;-72
2023/03/18 05:45:32;;;;;;;0.90;0.90;;;;;;;7.46;100.00;100883.44;5094887;28;20205;-72
2023/03/18 05:47:59;;;;;;;1.00;1.00;;;;;;;7.61;100.00;100890.91;5095026;28;20313;-72
2023/03/18 05:50:32;;;;;;;2.60;2.50;;;;;;;7.90;100.00;100892.06;5094979;28;20198;-72
2023/03/18 05:52:59;;;;;;;0.70;0.70;;;;;;;7.98;100.00;100893.25;5095160;28;20198;-72
2023/03/18 05:55:27;;;;;;;1.30;1.30;;;;;;;7.87;100.00;100899.69;5090492;28;20293;-73
2023/03/18 05:57:54;;;;;;;0.80;0.80;;;;;;;7.90;100.00;100904.97;5080122;28;20283;-73
2023/03/18 06:00:21;;;;;;;1.23;1.23;;;;;;;7.94;100.00;100912.00;5094675;28;20217;-72
2023/03/18 06:02:48;;;;;;;1.97;1.87;;;;;;;7.78;100.00;100879.53;5087436;28;20198;-72
2023/03/18 06:05:15;;;;;;;0.80;0.80;;;;;;;7.67;100.00;100900.63;5087998;28;20202;-72
2023/03/18 06:07:44;;;;;;;0.80;0.80;;;;;;;7.99;100.00;100921.69;5094141;28;20218;-72
2023/03/18 06:10:12;;;;;;;0.80;0.80;;;;;;;7.52;99.56;100908.63;5094371;28;20234;-72
2023/03/18 06:12:39;;;;;;;0.70;0.70;;;;;;;7.73;96.35;100932.72;5094206;28;20202;-73
2023/03/18 06:15:08;;;;;;;0.90;0.90;;;;;;;7.84;99.76;100933.13;5094356;28;20223;-74
2023/03/18 06:17:35;;;;;;;1.27;1.27;;;;;;;8.13;100.00;100930.00;5094105;28;20202;-72
2023/03/18 06:20:03;;;;;;;0.80;0.80;;;;;;;8.18;100.00;100936.19;5085584;28;20662;-71
2023/03/18 06:22:30;;;;;;;1.40;1.30;;;;;;;8.05;100.00;100931.38;5088886;28;20198;-73
2023/03/18 06:24:58;;;;;;;0.80;0.80;;;;;;;7.80;100.00;100920.91;5087070;28;20591;-72
2023/03/18 06:27:25;;;;;;;1.63;1.57;;;;;;;7.73;100.00;100943.03;5087665;28;20591;-72
2023/03/18 06:29:53;;;;;;;0.80;0.80;;;;;;;7.80;100.00;100939.00;5093834;28;20194;-77
2023/03/18 06:32:20;;;;;;;1.00;1.00;;;;;;;7.61;100.00;100933.91;5082773;28;20629;-71
2023/03/18 06:34:47;;;;;;;2.17;2.07;;;;;;;7.67;100.00;100937.59;5052761;28;20199;-72
2023/03/18 06:37:14;;;;;;;1.00;1.00;;;;;;;7.19;100.00;100856.53;5083543;28;20202;-71
2023/03/18 06:39:41;;;;;;;0.70;0.70;;;;;;;7.78;100.00;100961.25;5093627;28;20206;-72
2023/03/18 06:42:10;;;;;;;1.13;1.13;;;;;;;7.71;100.00;100961.84;5093731;28;20229;-73
2023/03/18 06:44:38;;;;;;;1.00;1.00;;;;;;;7.40;100.00;100973.50;5042038;28;20308;-72
2023/03/18 06:47:05;;;;;;;0.63;0.63;;;;;;;7.37;100.00;100951.84;5093745;28;20209;-72
2023/03/18 06:49:32;;;;;;;1.10;1.10;;;;;;;7.64;100.00;100970.16;5093996;28;20228;-73
2023/03/18 06:51:59;;;;;;;1.17;1.17;;;;;;;7.58;100.00;100972.50;5093655;28;20205;-72
2023/03/18 06:54:26;;;;;;;0.90;0.90;;;;;;;7.65;100.00;100977.09;5041863;28;20210;-72
2023/03/18 06:56:52;;;;;;;0.70;0.70;;;;;;;7.85;100.00;100971.00;5041797;28;20199;-71
2023/03/18 06:59:22;;;;;;;0.97;0.97;;;;;;;7.65;100.00;100935.78;5037954;28;20223;-70
2023/03/18 07:01:49;;;;;;;0.70;0.70;;;;;;;7.62;100.00;100918.50;5089266;28;20201;-72
2023/03/18 07:04:17;;;;;;;0.90;0.90;;;;;;;7.48;95.67;100987.63;5093223;28;20206;-72
2023/03/18 07:06:44;;;;;;;1.03;1.03;;;;;;;7.57;98.63;100986.22;5093419;28;20680;-74
2023/03/18 07:09:11;;;;;;;0.70;0.70;;;;;;;7.81;99.75;100984.66;5073369;28;20245;-72
2023/03/18 07:11:38;;;;;;;0.90;0.90;;;;;;;7.88;100.00;100978.91;5073031;28;20202;-72
2023/03/18 07:14:05;;;;;;;1.30;1.30;;;;;;;7.80;95.84;100986.34;5077173;28;20213;-72
2023/03/18 07:16:33;;;;;;;0.70;0.70;;;;;;;7.84;98.38;100989.94;5031528;28;20206;-71
2023/03/18 07:19:00;;;;;;;0.90;0.90;;;;;;;7.96;100.00;100982.66;5089586;28;20210;-72
2023/03/18 07:21:28;;;;;;;1.50;1.40;;;;;;;7.74;100.00;100993.81;5093098;28;20275;-72
2023/03/18 07:23:55;;;;;;;0.70;0.70;;;;;;;7.38;100.00;100990.59;5091968;28;20194;-72
2023/03/18 07:26:22;;;;;;;0.70;0.70;;;;;;;7.85;100.00;100989.09;5072776;28;20589;-71
2023/03/18 07:28:50;;;;;;;1.17;1.17;;;;;;;7.42;99.05;100977.00;5086061;28;20592;-71
2023/03/18 07:31:17;;;;;;;0.80;0.80;;;;;;;7.54;97.89;100996.41;5092848;28;20695;-71
2023/03/18 07:33:45;;;;;;;0.70;0.70;;;;;;;7.64;95.91;101003.72;5080697;28;20677;-71
2023/03/18 07:36:13;;;;;;;1.10;1.10;;;;;;;7.14;97.57;100978.34;5035470;28;20226;-70
2023/03/18 07:38:39;;;;;;;0.70;0.70;;;;;;;7.36;100.00;100997.41;5082877;28;20202;-71
2023/03/18 07:41:06;;;;;;;0.80;0.80;;;;;;;7.14;100.00;100999.88;5057169;28;20234;-71
2023/03/18 07:43:33;;;;;;;1.10;1.10;;;;;;;7.37;100.00;101001.75;5092421;28;20202;-71
2023/03/18 07:46:00;;;;;;;0.80;0.80;;;;;;;7.63;100.00;100996.81;5092411;28;20198;-71
2023/03/18 07:48:27;;;;;;;0.90;0.90;;;;;;;7.57;100.00;100994.84;5092560;28;20415;-71
2023/03/18 07:50:55;;;;;;;0.70;0.70;;;;;;;7.74;100.00;100998.13;5092433;28;20202;-71
2023/03/18 07:53:22;;;;;;;1.83;1.83;;;;;;;7.73;100.00;100989.50;5092113;28;20195;-70
2023/03/18 07:55:49;;;;;;;0.90;0.90;;;;;;;8.20;100.00;100996.56;5028762;28;20206;-71
2023/03/18 07:58:16;;;;;;;0.73;0.73;;;;;;;8.63;97.03;100990.47;5075705;28;20238;-72
2023/03/18 08:00:43;;;;;;;0.70;0.70;;;;;;;8.35;97.27;100988.53;5092225;28;20588;-72
2023/03/18 08:03:12;;;;;;;1.00;1.00;;;;;;;8.17;92.73;100968.00;5092323;28;20235;-72
2023/03/18 08:05:40;;;;;;;0.90;0.90;;;;;;;8.16;94.38;100997.25;5091620;28;20235;-70
2023/03/18 08:08:08;;;;;;;0.80;0.80;;;;;;;8.26;92.80;101001.97;5091913;28;20198;-70
2023/03/18 08:10:35;;;;;;;0.80;0.80;;;;;;;8.26;91.02;100990.75;5092012;28;20190;-72
2023/03/18 08:13:02;;;;;;;1.50;1.40;;;;;;;8.24;86.20;100990.66;5091951;28;20218;-71
2023/03/18 08:15:30;;;;;;;0.87;0.87;;;;;;;8.07;88.09;101007.22;5091706;28;20204;-72
2023/03/18 08:17:56;;;;;;;0.70;0.70;;;;;;;8.27;85.81;100959.81;5083912;28;20666;-71
2023/03/18 08:20:23;;;;;;;3.00;2.40;;;;;;;8.73;85.37;101008.09;5071493;28;20199;-72
2023/03/18 08:22:51;;;;;;;0.80;0.80;;;;;;;8.52;81.96;101015.03;5077858;28;20198;-72
2023/03/18 08:25:20;;;;;;;0.97;0.97;;;;;;;8.64;83.15;101007.72;5091873;28;20687;-72
2023/03/18 08:27:47;;;;;;;0.70;0.70;;;;;;;8.61;81.84;101002.44;5091683;28;20205;-71
2023/03/18 08:30:15;;;;;;;0.80;0.80;;;;;;;8.62;80.25;100991.28;5091375;28;20236;-71
2023/03/18 08:32:42;;;;;;;0.90;0.90;;;;;;;8.70;77.92;100987.28;5056276;28;20194;-71
2023/03/18 08:35:10;;;;;;;1.70;1.57;;;;;;;9.03;82.23;101004.00;5081879;28;20199;-71
2023/03/18 08:37:37;;;;;;;0.80;0.80;;;;;;;8.79;75.89;101008.31;5087020;28;20201;-71
2023/03/18 08:40:04;;;;;;;0.70;0.70;;;;;;;8.92;76.92;100974.28;5091442;28;20210;-71
2023/03/18 08:42:32;;;;;;;0.70;0.70;;;;;;;9.15;75.54;100998.41;5055517;28;20202;-71
2023/03/18 08:44:59;;;;;;;0.70;0.70;;;;;;;9.01;73.80;100995.31;5084916;28;20195;-70
2023/03/18 08:47:26;;;;;;;0.70;0.70;;;;;;;9.03;71.76;100959.16;5070835;28;20203;-70
2023/03/18 08:49:53;;;;;;;3.23;2.80;;;;;;;9.14;72.98;100991.44;5071114;28;20309;-70
2023/03/18 08:52:21;;;;;;;0.60;0.60;;;;;;;9.07;73.35;101000.72;5071093;28;20204;-71
2023/03/18 08:54:48;;;;;;;0.70;0.70;;;;;;;9.25;72.40;100995.28;5071197;28;20199;-71
2023/03/18 08:57:15;;;;;;;0.77;0.77;;;;;;;8.92;70.42;101002.72;5071135;28;20202;-70
2023/03/18 08:59:44;;;;;;;0.70;0.70;;;;;;;9.06;70.63;100973.06;5070808;28;20269;-70
2023/03/18 09:02:15;;;;;;;0.60;0.60;;;;;;;9.35;63.99;101003.44;5035853;28;20198;-71
2023/03/18 09:04:42;;;;;;;0.90;0.90;;;;;;;9.25;65.35;100975.47;5070829;28;20210;-71
2023/03/18 09:07:09;;;;;;;0.70;0.70;;;;;;;9.60;65.81;100996.50;5071113;28;20210;-71
2023/03/18 09:09:36;;;;;;;0.70;0.70;;;;;;;9.83;67.64;100977.44;5071006;28;20226;-71
2023/03/18 09:12:05;;;;;;;0.80;0.80;;;;;;;9.59;64.83;100982.69;5071042;28;20603;-72
2023/03/18 09:14:33;;;;;;;0.60;0.60;;;;;;;9.85;64.20;100996.47;5070644;28;20202;-71
2023/03/18 09:17:01;;;;;;;0.70;0.70;;;;;;;9.72;63.98;100995.22;5070874;28;20198;-70
2023/03/18 09:19:28;;;;;;;0.70;0.70;;;;;;;9.89;61.54;100978.50;5070161;28;20199;-70
2023/03/18 09:21:55;;;;;;;0.67;0.67;;;;;;;9.97;59.30;100996.88;5070834;28;20202;-70
2023/03/18 09:24:22;;;;;;;0.60;0.60;;;;;;;10.08;58.54;100995.50;5070792;28;20199;-70
2023/03/18 09:26:48;;;;;;;0.63;0.63;;;;;;;10.10;52.18;100995.53;5019225;28;20214;-71
2023/03/18 09:29:15;;;;;;;0.73;0.73;;;;;;;10.23;63.04;100985.66;5070518;28;20229;-72
2023/03/18 09:31:42;;;;;;;0.90;0.90;;;;;;;10.19;55.62;100983.81;5075034;28;20194;-73
2023/03/18 09:34:12;;;;;;;0.77;0.77;;;;;;;10.51;57.12;100986.47;5090825;28;20198;-72
2023/03/18 09:36:39;;;;;;;0.60;0.60;;;;;;;10.61;56.83;100993.69;5075441;28;20237;-70
2023/03/18 09:39:07;;;;;;;0.70;0.70;;;;;;;10.40;51.94;100980.97;5070399;28;20198;-71
2023/03/18 09:41:47;;;;;;;0.70;0.70;;;;;;;10.54;51.20;100989.16;5070366;28;20214;-71
2023/03/18 09:44:21;;;;;;;0.70;0.70;;;;;;;9.37;50.33;100807.69;5084481;28;20202;-71
2023/03/18 09:47:03;;;;;;;0.60;0.60;;;;;;;10.16;49.73;100978.53;5090566;28;20193;-71
2023/03/18 09:50:09;;;;;;;0.70;0.70;;;;;;;10.31;48.64;100976.38;5090065;28;20731;-72
2023/03/18 09:52:43;;;;;;;0.80;0.80;;;;;;;10.48;47.34;100976.03;5090275;28;20198;-71
2023/03/18 09:55:20;;;;;;;0.63;0.63;;;;;;;10.42;46.40;100972.41;5035122;28;20214;-71
2023/03/18 09:57:50;;;;;;;0.70;0.70;;;;;;;10.32;47.48;100975.56;5048134;28;20287;-72
2023/03/18 10:00:20;;;;;;;0.70;0.70;;;;;;;10.53;47.17;100985.69;5090192;28;20305;-71
2023/03/18 10:02:52;;;;;;;0.60;0.60;;;;;;;10.63;47.78;100976.47;5090497;28;20310;-72
2023/03/18 10:05:25;;;;;;;0.65;0.65;;;;;;;10.73;46.33;100978.50;5090191;28;20602;-71
2023/03/18 10:07:58;;;;;;;0.90;0.90;;;;;;;10.67;46.06;100989.56;5054970;28;20268;-71
2023/03/18 10:10:29;;;;;;;0.60;0.60;;;;;;;10.65;46.28;100970.50;5090291;28;20229;-72
2023/03/18 10:13:03;;;;;;;0.70;0.70;;;;;;;10.61;47.11;100979.03;5055516;28;20214;-72
2023/03/18 10:15:34;;;;;;;0.70;0.70;;;;;;;10.76;46.34;100974.28;5085997;28;20195;-71
2023/03/18 10:18:09;;;;;;;0.63;0.63;;;;;;;10.72;46.47;100972.44;5081685;28;20255;-71
2023/03/18 10:20:50;;;;;;;0.68;0.68;;;;;;;10.68;46.67;100967.09;5071101;28;20205;-71
2023/03/18 10:23:30;;;;;;;0.70;0.70;;;;;;;10.90;47.40;100957.38;5090070;28;20673;-71
2023/03/18 10:26:04;;;;;;;0.60;0.60;;;;;;;10.87;46.03;100957.31;5076908;28;20616;-75
2023/03/18 10:28:55;;;;;;;0.70;0.70;;;;;;;10.85;45.88;100952.88;5090201;28;20757;-72
2023/03/18 10:31:32;;;;;;;0.70;0.70;;;;;;;11.10;46.30;100944.03;5083037;28;20589;-72
2023/03/18 10:34:01;;;;;;;0.90;0.90;;;;;;;10.82;46.45;100908.69;5094223;28;20209;-73
2023/03/18 10:36:38;;;;;;;0.80;0.80;;;;;;;10.79;45.86;100942.34;5093937;28;20205;-72
2023/03/18 10:39:12;;;;;;;0.80;0.80;;;;;;;10.80;46.56;100937.22;5091957;28;20205;-72
2023/03/18 10:41:42;;;;;;;0.77;0.77;;;;;;;10.87;45.52;100939.16;5027712;28;20209;-72
2023/03/18 10:44:17;;;;;;;0.70;0.70;;;;;;;10.85;46.15;100935.59;5089106;28;20202;-71
2023/03/18 10:46:47;;;;;;;0.88;0.88;;;;;;;11.21;56.49;100912.34;5093683;28;20243;-71
2023/03/18 10:49:18;;;;;;;0.70;0.70;;;;;;;11.49;47.67;100929.50;5093620;28;20230;-70
2023/03/18 10:51:53;;;;;;;0.70;0.70;;;;;;;11.69;47.92;100932.59;5093591;28;20225;-71
2023/03/18 10:54:25;;;;;;;0.90;0.90;;;;;;;11.65;46.17;100909.97;5093286;28;20209;-70
2023/03/18 10:56:52;;;;;;;0.70;0.70;;;;;;;11.65;45.78;100913.47;5093337;28;20209;-70
2023/03/18 10:59:22;;;;;;;0.80;0.80;;;;;;;11.67;45.61;100929.94;5093478;28;20237;-73
2023/03/18 11:01:54;;;;;;;0.80;0.80;;;;;;;11.55;45.88;100923.59;5058629;28;20190;-71
2023/03/18 11:04:23;;;;;;;0.68;0.68;;;;;;;11.27;46.04;100909.91;5093302;28;20673;-71
2023/03/18 11:06:56;;;;;;;0.60;0.60;;;;;;;11.60;47.20;100917.66;5093386;28;20575;-71
2023/03/18 11:09:30;;;;;;;0.90;0.90;;;;;;;11.60;46.51;100927.16;5093579;28;20317;-71
2023/03/18 11:12:02;;;;;;;0.70;0.70;;;;;;;11.69;46.81;100906.63;5093782;28;20621;-74
2023/03/18 11:14:31;;;;;;;0.70;0.70;;;;;;;11.89;46.92;100895.88;5059435;28;20222;-77
2023/03/18 11:16:59;;;;;;;0.80;0.80;;;;;;;12.16;46.28;100872.22;5093410;28;20202;-76
2023/03/18 11:19:32;;;;;;;0.75;0.75;;;;;;;12.51;47.30;100913.66;5041052;28;20201;-78
2023/03/18 11:22:18;;;;;;;0.63;0.63;;;;;;;12.79;45.71;100908.16;5093570;28;20201;-77
2023/03/18 11:24:45;;;;;;;0.80;0.80;;;;;;;12.75;46.33;100902.03;5057800;28;20204;-76
2023/03/18 11:27:28;;;;;;;0.70;0.70;;;;;;;12.85;44.60;100908.28;5093244;28;20248;-77
2023/03/18 11:29:58;;;;;;;0.80;0.80;;;;;;;12.73;46.01;100905.44;5092943;28;20253;-79
2023/03/18 11:32:28;;;;;;;0.80;0.80;;;;;;;12.86;44.96;100904.81;5093162;28;20205;-76
2023/03/18 11:34:57;;;;;;;0.80;0.80;;;;;;;12.60;44.47;100903.44;5093091;28;20202;-72